createdAt,value
2018-04-23T00:00:21.016Z,14.13
2018-04-23T00:02:48.615Z,14.16
2018-04-23T00:05:16.414Z,14.13
2018-04-23T00:07:44.234Z,14.12
2018-04-23T00:10:11.973Z,14.08
2018-04-23T00:12:39.583Z,14.14
2018-04-23T00:15:07.152Z,14.03
2018-04-23T00:17:34.701Z,14.09
2018-04-23T00:20:02.297Z,14.16
2018-04-23T00:22:30.003Z,14.16
2018-04-23T00:24:57.567Z,14.35
2018-04-23T00:27:25.135Z,14.33
2018-04-23T00:29:52.728Z,14.27
2018-04-23T00:32:20.332Z,14.20
2018-04-23T00:34:48.081Z,14.24
2018-04-23T00:37:15.653Z,14.13
2018-04-23T00:39:43.213Z,14.24
2018-04-23T00:42:10.793Z,14.14
2018-04-23T00:44:38.375Z,14.27
2018-04-23T00:47:05.934Z,14.14
2018-04-23T00:49:33.558Z,14.12
2018-04-23T00:52:01.144Z,14.06
2018-04-23T00:54:28.943Z,14.13
2018-04-23T00:56:56.551Z,14.07
2018-04-23T00:59:24.120Z,14.09
2018-04-23T01:01:51.696Z,14.05
2018-04-23T01:04:19.451Z,14.11
2018-04-23T01:06:47.084Z,14.03
2018-04-23T01:09:14.898Z,14.09
2018-04-23T01:11:42.699Z,14.16
2018-04-23T01:14:10.759Z,13.95
2018-04-23T01:16:38.326Z,13.90
2018-04-23T01:19:06.239Z,13.79
2018-04-23T01:21:33.815Z,13.82
2018-04-23T01:24:01.456Z,13.88
2018-04-23T01:26:29.271Z,13.84
2018-04-23T01:28:56.841Z,13.79
2018-04-23T01:31:24.405Z,13.92
2018-04-23T01:33:52.168Z,13.89
2018-04-23T01:36:19.795Z,13.91
2018-04-23T01:38:47.517Z,13.83
2018-04-23T01:41:15.139Z,13.87
2018-04-23T01:43:42.813Z,13.77
2018-04-23T01:46:10.368Z,13.70
2018-04-23T01:48:38.321Z,13.70
2018-04-23T01:51:05.872Z,13.72
2018-04-23T01:53:33.436Z,13.66
2018-04-23T01:56:01.016Z,13.63
2018-04-23T01:58:28.715Z,13.59
2018-04-23T02:00:56.324Z,13.50
2018-04-23T02:03:23.959Z,13.55
2018-04-23T02:05:51.548Z,13.48
2018-04-23T02:08:19.108Z,13.42
2018-04-23T02:10:46.892Z,13.30
2018-04-23T02:13:14.486Z,13.28
2018-04-23T02:15:42.058Z,13.34
2018-04-23T02:18:10.327Z,13.34
2018-04-23T02:20:37.880Z,13.34
2018-04-23T02:23:05.678Z,13.22
2018-04-23T02:25:33.263Z,13.15
2018-04-23T02:28:00.888Z,13.10
2018-04-23T02:30:28.705Z,13.14
2018-04-23T02:32:56.483Z,13.12
2018-04-23T02:35:24.091Z,13.12
2018-04-23T02:37:51.705Z,12.93
2018-04-23T02:40:19.511Z,13.03
2018-04-23T02:42:47.082Z,13.09
2018-04-23T02:45:14.707Z,13.09
2018-04-23T02:47:42.267Z,12.93
2018-04-23T02:50:09.869Z,12.93
2018-04-23T02:52:37.423Z,12.91
2018-04-23T02:55:04.988Z,12.88
2018-04-23T02:57:32.601Z,12.95
2018-04-23T03:00:00.166Z,12.89
2018-04-23T03:02:27.847Z,12.96
2018-04-23T03:04:55.431Z,12.88
2018-04-23T03:07:23.225Z,12.83
2018-04-23T03:09:50.777Z,12.81
2018-04-23T03:12:18.381Z,12.75
2018-04-23T03:14:45.944Z,12.71
2018-04-23T03:17:13.533Z,12.72
2018-04-23T03:19:41.121Z,12.71
2018-04-23T03:22:09.072Z,12.73
2018-04-23T03:24:36.656Z,12.64
2018-04-23T03:27:04.286Z,12.71
2018-04-23T03:29:31.836Z,12.62
2018-04-23T03:31:59.399Z,12.66
2018-04-23T03:34:27.483Z,12.71
2018-04-23T03:36:55.041Z,12.70
2018-04-23T03:39:22.627Z,12.72
2018-04-23T03:41:50.377Z,12.62
2018-04-23T03:44:17.944Z,12.52
2018-04-23T03:46:45.668Z,12.41
2018-04-23T03:49:13.213Z,12.44
2018-04-23T03:51:40.765Z,12.39
2018-04-23T03:54:08.504Z,12.39
2018-04-23T03:56:36.327Z,12.30
2018-04-23T03:59:03.953Z,12.35
2018-04-23T04:01:31.557Z,12.25
2018-04-23T04:03:59.148Z,12.40
2018-04-23T04:06:26.800Z,12.38
2018-04-23T04:08:54.371Z,12.49
2018-04-23T04:11:21.927Z,12.57
2018-04-23T04:14:01.461Z,12.40
2018-04-23T04:16:40.982Z,12.27
2018-04-23T04:19:08.573Z,12.35
2018-04-23T04:21:36.125Z,12.39
2018-04-23T04:24:04.316Z,12.38
2018-04-23T04:26:31.888Z,12.31
2018-04-23T04:29:00.409Z,12.41
2018-04-23T04:31:28.056Z,12.28
2018-04-23T04:33:55.622Z,12.39
2018-04-23T04:36:23.176Z,12.32
2018-04-23T04:38:50.901Z,12.22
2018-04-23T04:41:18.450Z,12.30
2018-04-23T04:43:46.021Z,12.24
2018-04-23T04:46:14.675Z,12.21
2018-04-23T04:48:42.236Z,12.17
2018-04-23T04:51:10.309Z,12.06
2018-04-23T04:53:37.868Z,12.07
2018-04-23T04:56:05.434Z,12.06
2018-04-23T04:58:33.520Z,12.01
2018-04-23T05:01:01.421Z,12.02
2018-04-23T05:03:28.997Z,11.99
2018-04-23T05:05:56.618Z,11.83
2018-04-23T05:08:24.426Z,11.84
2018-04-23T05:10:52.051Z,11.92
2018-04-23T05:13:19.669Z,11.87
2018-04-23T05:15:47.314Z,11.77
2018-04-23T05:18:14.882Z,11.76
2018-04-23T05:20:42.565Z,11.72
2018-04-23T05:23:10.378Z,11.73
2018-04-23T05:25:37.948Z,11.68
2018-04-23T05:28:05.687Z,11.78
2018-04-23T05:30:33.295Z,11.78
2018-04-23T05:33:00.857Z,11.68
2018-04-23T05:35:28.651Z,11.87
2018-04-23T05:37:56.230Z,11.95
2018-04-23T05:40:23.803Z,11.86
2018-04-23T05:42:51.956Z,12.07
2018-04-23T05:45:19.527Z,11.94
2018-04-23T05:47:47.085Z,12.04
2018-04-23T05:50:14.801Z,12.34
2018-04-23T05:52:42.566Z,11.98
2018-04-23T05:55:10.264Z,12.76
2018-04-23T05:57:37.809Z,13.42
2018-04-23T06:00:05.381Z,12.89
2018-04-23T06:02:33.185Z,14.10
2018-04-23T06:05:00.860Z,13.93
2018-04-23T06:07:28.476Z,13.86
2018-04-23T06:09:56.036Z,13.57
2018-04-23T06:12:23.592Z,14.20
2018-04-23T06:14:51.704Z,14.28
2018-04-23T06:17:19.266Z,14.15
2018-04-23T06:19:46.871Z,14.31
2018-04-23T06:22:14.618Z,14.00
2018-04-23T06:24:42.181Z,15.57
2018-04-23T06:27:10.048Z,14.53
2018-04-23T06:29:37.822Z,14.76
2018-04-23T06:32:05.540Z,13.81
2018-04-23T06:34:33.172Z,13.90
2018-04-23T06:37:00.741Z,13.45
2018-04-23T06:39:28.318Z,13.03
2018-04-23T06:41:55.891Z,13.02
2018-04-23T06:44:23.922Z,12.94
2018-04-23T06:46:51.484Z,12.93
2018-04-23T06:49:19.049Z,12.72
2018-04-23T06:51:46.831Z,12.96
2018-04-23T06:54:14.580Z,13.03
2018-04-23T06:56:42.161Z,12.90
2018-04-23T06:59:09.772Z,13.05
2018-04-23T07:01:37.353Z,13.27
2018-04-23T07:04:05.421Z,13.29
2018-04-23T07:06:33.066Z,13.68
2018-04-23T07:09:00.616Z,13.95
2018-04-23T07:11:28.218Z,13.54
2018-04-23T07:13:55.780Z,13.99
2018-04-23T07:16:23.351Z,14.13
2018-04-23T07:18:51.131Z,13.87
2018-04-23T07:21:18.678Z,13.92
2018-04-23T07:23:46.273Z,13.99
2018-04-23T07:26:13.863Z,14.06
2018-04-23T07:28:41.412Z,13.80
2018-04-23T07:31:09.028Z,13.63
2018-04-23T07:33:36.580Z,13.40
2018-04-23T07:36:04.147Z,13.36
2018-04-23T07:38:32.228Z,13.56
2018-04-23T07:40:59.812Z,13.62
2018-04-23T07:43:27.586Z,13.61
2018-04-23T07:45:55.163Z,13.99
2018-04-23T07:48:22.717Z,14.39
2018-04-23T07:50:50.310Z,14.13
2018-04-23T07:53:17.905Z,14.39
2018-04-23T07:55:45.654Z,14.73
2018-04-23T07:58:13.432Z,14.10
2018-04-23T08:00:40.979Z,14.15
2018-04-23T08:03:08.588Z,14.67
2018-04-23T08:05:36.255Z,14.55
2018-04-23T08:08:03.978Z,14.39
2018-04-23T08:10:31.570Z,14.50
2018-04-23T08:12:59.118Z,14.72
2018-04-23T08:15:26.889Z,15.10
2018-04-23T08:17:54.632Z,14.87
2018-04-23T08:20:22.409Z,14.84
2018-04-23T08:22:51.886Z,14.80
2018-04-23T08:25:19.706Z,15.39
2018-04-23T08:27:47.355Z,15.38
2018-04-23T08:30:14.941Z,14.76
2018-04-23T08:32:42.490Z,15.13
2018-04-23T08:35:10.322Z,15.33
2018-04-23T08:37:37.887Z,15.37
2018-04-23T08:40:05.460Z,15.19
2018-04-23T08:42:33.035Z,15.77
2018-04-23T08:45:01.214Z,15.08
2018-04-23T08:47:28.771Z,15.53
2018-04-23T08:49:56.464Z,15.68
2018-04-23T08:52:24.056Z,15.02
2018-04-23T08:54:51.643Z,14.93
2018-04-23T08:57:19.219Z,14.90
2018-04-23T08:59:46.977Z,14.88
2018-04-23T09:02:14.545Z,15.58
2018-04-23T09:04:42.266Z,16.02
2018-04-23T09:07:10.291Z,15.22
2018-04-23T09:09:37.862Z,15.05
2018-04-23T09:12:05.513Z,15.28
2018-04-23T09:14:33.097Z,15.90
2018-04-23T09:17:00.898Z,16.70
2018-04-23T09:19:28.742Z,16.21
2018-04-23T09:21:56.314Z,16.19
2018-04-23T09:24:23.879Z,16.21
2018-04-23T09:26:51.468Z,15.53
2018-04-23T09:29:19.060Z,14.85
2018-04-23T09:31:46.801Z,15.44
2018-04-23T09:34:14.769Z,15.18
2018-04-23T09:36:42.329Z,14.74
2018-04-23T09:39:09.892Z,14.87
2018-04-23T09:41:37.497Z,14.87
2018-04-23T09:44:05.430Z,15.34
2018-04-23T09:46:32.995Z,15.50
2018-04-23T09:49:00.648Z,15.40
2018-04-23T09:51:28.245Z,15.07
2018-04-23T09:53:55.800Z,15.26
2018-04-23T09:56:23.384Z,15.21
2018-04-23T09:58:50.974Z,14.75
2018-04-23T10:01:20.486Z,14.95
2018-04-23T10:03:51.035Z,15.46
2018-04-23T10:06:18.784Z,14.98
2018-04-23T10:08:46.593Z,15.23
2018-04-23T10:11:14.179Z,15.09
2018-04-23T10:13:41.769Z,15.08
2018-04-23T10:16:09.650Z,15.61
2018-04-23T10:18:37.396Z,15.53
2018-04-23T10:21:05.179Z,15.61
2018-04-23T10:23:32.746Z,16.00
2018-04-23T10:26:00.419Z,15.62
2018-04-23T10:28:28.203Z,15.59
2018-04-23T10:30:55.766Z,15.63
2018-04-23T10:33:23.346Z,15.16
2018-04-23T10:35:51.021Z,15.42
2018-04-23T10:38:18.805Z,15.18
2018-04-23T10:40:46.344Z,15.60
2018-04-23T10:43:13.958Z,16.03
2018-04-23T10:45:41.513Z,15.92
2018-04-23T10:48:09.055Z,16.16
2018-04-23T10:50:36.838Z,16.26
2018-04-23T10:53:04.756Z,16.53
2018-04-23T10:55:32.314Z,16.89
2018-04-23T10:57:59.872Z,17.18
2018-04-23T11:00:27.819Z,17.27
2018-04-23T11:02:55.383Z,16.85
2018-04-23T11:05:22.999Z,16.80
2018-04-23T11:07:50.603Z,17.42
2018-04-23T11:10:18.165Z,17.68
2018-04-23T11:12:45.717Z,17.24
2018-04-23T11:15:13.311Z,16.67
2018-04-23T11:17:40.858Z,16.51
2018-04-23T11:20:08.677Z,16.75
2018-04-23T11:22:36.251Z,16.13
2018-04-23T11:25:03.884Z,16.06
2018-04-23T11:27:31.463Z,16.20
2018-04-23T11:29:59.006Z,16.24
2018-04-23T11:32:26.975Z,16.47
2018-04-23T11:34:54.522Z,17.09
2018-04-23T11:37:22.077Z,16.38
2018-04-23T11:39:49.662Z,16.48
2018-04-23T11:42:17.227Z,16.73
2018-04-23T11:44:44.942Z,16.30
2018-04-23T11:47:12.608Z,16.71
2018-04-23T11:49:40.378Z,16.72
2018-04-23T11:52:08.464Z,16.92
2018-04-23T11:54:36.028Z,16.49
2018-04-23T11:57:03.569Z,16.39
2018-04-23T11:59:31.504Z,16.97
2018-04-23T12:01:59.057Z,16.93
2018-04-23T12:04:26.644Z,17.67
2018-04-23T12:06:54.252Z,18.36
2018-04-23T12:09:22.403Z,18.75
2018-04-23T12:11:49.950Z,18.24
2018-04-23T12:14:17.751Z,17.77
2018-04-23T12:16:45.812Z,18.29
2018-04-23T12:19:13.354Z,17.99
2018-04-23T12:21:40.929Z,17.64
2018-04-23T12:24:08.514Z,17.35
2018-04-23T12:26:36.329Z,18.02
2018-04-23T12:29:03.904Z,17.34
2018-04-23T12:31:31.495Z,17.41
2018-04-23T12:33:59.145Z,16.93
2018-04-23T12:36:26.885Z,17.05
2018-04-23T12:38:55.018Z,17.39
2018-04-23T12:41:22.579Z,18.01
2018-04-23T12:43:50.137Z,17.05
2018-04-23T12:46:17.761Z,17.61
2018-04-23T12:48:45.295Z,17.35
2018-04-23T12:51:13.191Z,17.47
2018-04-23T12:53:40.756Z,17.76
2018-04-23T12:56:08.314Z,17.32
2018-04-23T12:58:35.936Z,18.03
2018-04-23T13:01:03.496Z,17.51
2018-04-23T13:03:31.044Z,17.99
2018-04-23T13:05:58.625Z,17.29
2018-04-23T13:08:26.411Z,18.10
2018-04-23T13:10:53.983Z,18.37
2018-04-23T13:13:21.539Z,17.84
2018-04-23T13:15:49.123Z,18.23
2018-04-23T13:18:16.909Z,17.90
2018-04-23T13:20:44.470Z,18.20
2018-04-23T13:23:12.487Z,18.33
2018-04-23T13:25:40.026Z,17.45
2018-04-23T13:28:07.604Z,17.71
2018-04-23T13:30:35.207Z,17.69
2018-04-23T13:33:02.965Z,16.73
2018-04-23T13:35:30.524Z,16.51
2018-04-23T13:37:58.723Z,16.77
2018-04-23T13:40:26.280Z,17.00
2018-04-23T13:42:53.831Z,16.70
2018-04-23T13:45:21.408Z,16.87
2018-04-23T13:47:48.942Z,16.90
2018-04-23T13:50:16.603Z,16.72
2018-04-23T13:52:44.088Z,16.98
2018-04-23T13:55:11.738Z,16.68
2018-04-23T13:57:39.282Z,16.57
2018-04-23T14:00:06.848Z,16.49
2018-04-23T14:02:34.411Z,16.62
2018-04-23T14:05:02.335Z,17.04
2018-04-23T14:07:29.904Z,16.92
2018-04-23T14:09:57.457Z,16.67
2018-04-23T14:12:25.055Z,16.66
2018-04-23T14:14:52.794Z,16.33
2018-04-23T14:17:20.340Z,16.47
2018-04-23T14:19:48.102Z,16.26
2018-04-23T14:22:15.642Z,16.50
2018-04-23T14:24:43.196Z,16.19
2018-04-23T14:27:10.778Z,16.56
2018-04-23T14:29:38.588Z,16.42
2018-04-23T14:32:06.357Z,16.54
2018-04-23T14:34:34.095Z,16.63
2018-04-23T14:37:02.018Z,16.70
2018-04-23T14:39:29.572Z,16.56
2018-04-23T14:41:57.159Z,16.41
2018-04-23T14:44:24.741Z,16.18
2018-04-23T14:46:52.311Z,16.31
2018-04-23T14:49:19.907Z,16.89
2018-04-23T14:51:47.552Z,16.09
2018-04-23T14:54:15.110Z,16.63
2018-04-23T14:56:43.052Z,16.51
2018-04-23T14:59:10.794Z,16.33
2018-04-23T15:01:38.335Z,16.40
2018-04-23T15:04:05.906Z,16.37
2018-04-23T15:06:33.484Z,16.25
2018-04-23T15:09:01.290Z,16.17
2018-04-23T15:11:28.868Z,16.51
2018-04-23T15:13:56.657Z,16.22
2018-04-23T15:16:24.215Z,16.47
2018-04-23T15:18:51.778Z,16.21
2018-04-23T15:21:19.380Z,15.69
2018-04-23T15:23:46.928Z,15.97
2018-04-23T15:26:14.464Z,15.49
2018-04-23T15:28:42.284Z,15.96
2018-04-23T15:31:09.892Z,15.86
2018-04-23T15:33:37.621Z,15.78
2018-04-23T15:36:05.325Z,15.74
2018-04-23T15:38:33.091Z,15.74
2018-04-23T15:41:00.688Z,15.84
2018-04-23T15:43:28.747Z,16.34
2018-04-23T15:45:56.289Z,15.95
2018-04-23T15:48:24.099Z,16.04
2018-04-23T15:50:52.037Z,15.79
2018-04-23T15:53:19.651Z,15.60
2018-04-23T15:55:47.200Z,16.58
2018-04-23T15:58:15.105Z,16.16
2018-04-23T16:00:42.667Z,15.82
2018-04-23T16:03:10.465Z,16.23
2018-04-23T16:05:38.340Z,16.02
2018-04-23T16:08:05.924Z,16.28
2018-04-23T16:10:33.691Z,15.64
2018-04-23T16:13:01.255Z,15.94
2018-04-23T16:15:28.797Z,15.81
2018-04-23T16:17:56.414Z,15.41
2018-04-23T16:20:23.976Z,16.07
2018-04-23T16:22:51.765Z,15.57
2018-04-23T16:25:19.334Z,15.53
2018-04-23T16:27:47.066Z,15.74
2018-04-23T16:30:14.611Z,15.51
2018-04-23T16:32:42.521Z,15.49
2018-04-23T16:35:10.081Z,15.71
2018-04-23T16:37:37.632Z,15.70
2018-04-23T16:40:05.228Z,15.86
2018-04-23T16:42:33.115Z,15.62
2018-04-23T16:45:00.669Z,15.21
2018-04-23T16:47:28.241Z,14.98
2018-04-23T16:49:55.809Z,15.14
2018-04-23T16:52:23.509Z,14.97
2018-04-23T16:54:51.305Z,15.41
2018-04-23T16:57:18.862Z,15.24
2018-04-23T16:59:46.426Z,14.89
2018-04-23T17:02:14.020Z,15.05
2018-04-23T17:04:41.839Z,14.98
2018-04-23T17:07:09.392Z,14.91
2018-04-23T17:09:37.190Z,14.89
2018-04-23T17:12:04.809Z,14.95
2018-04-23T17:14:32.390Z,14.54
2018-04-23T17:16:59.935Z,14.80
2018-04-23T17:19:27.509Z,14.63
2018-04-23T17:21:55.135Z,14.44
2018-04-23T17:24:22.938Z,14.54
2018-04-23T17:26:50.791Z,14.54
2018-04-23T17:29:18.601Z,14.43
2018-04-23T17:31:46.374Z,14.18
2018-04-23T17:34:14.388Z,14.25
2018-04-23T17:36:41.942Z,14.20
2018-04-23T17:39:09.496Z,14.35
2018-04-23T17:41:37.221Z,14.18
2018-04-23T17:44:04.758Z,14.15
2018-04-23T17:46:32.531Z,13.94
2018-04-23T17:49:00.397Z,13.76
2018-04-23T17:51:28.617Z,13.67
2018-04-23T17:53:56.383Z,13.50
2018-04-23T17:56:24.252Z,13.44
2018-04-23T17:58:52.281Z,13.58
2018-04-23T18:01:19.822Z,13.45
2018-04-23T18:03:47.841Z,13.22
2018-04-23T18:06:15.687Z,13.08
2018-04-23T18:08:43.772Z,13.13
2018-04-23T18:11:11.451Z,12.97
2018-04-23T18:13:39.036Z,12.97
2018-04-23T18:16:06.702Z,12.77
2018-04-23T18:18:35.212Z,12.77
2018-04-23T18:21:02.964Z,12.69
2018-04-23T18:23:30.720Z,12.69
2018-04-23T18:25:58.421Z,12.58
2018-04-23T18:28:25.998Z,12.47
2018-04-23T18:30:53.563Z,12.45
2018-04-23T18:33:21.143Z,12.41
2018-04-23T18:35:48.697Z,12.26
2018-04-23T18:38:16.288Z,12.25
2018-04-23T18:40:43.841Z,12.16
2018-04-23T18:43:11.420Z,12.05
2018-04-23T18:45:39.025Z,11.95
2018-04-23T18:48:06.574Z,11.90
2018-04-23T18:50:34.197Z,11.86
2018-04-23T18:53:02.810Z,11.79
2018-04-23T18:55:30.442Z,11.73
2018-04-23T18:57:58.009Z,11.65
2018-04-23T19:00:25.984Z,11.66
2018-04-23T19:02:53.560Z,11.63
2018-04-23T19:05:21.132Z,11.57
2018-04-23T19:07:49.010Z,11.56
2018-04-23T19:10:16.584Z,11.51
2018-04-23T19:12:44.135Z,11.49
2018-04-23T19:15:11.726Z,11.56
2018-04-23T19:17:39.303Z,11.48
2018-04-23T19:20:07.120Z,11.41
2018-04-23T19:22:34.505Z,11.49
2018-04-23T19:25:02.076Z,11.36
2018-04-23T19:27:29.627Z,11.27
2018-04-23T19:29:57.394Z,11.32
2018-04-23T19:32:25.150Z,11.18
2018-04-23T19:34:52.700Z,11.23
2018-04-23T19:37:20.286Z,11.12
2018-04-23T19:39:47.872Z,11.02
2018-04-23T19:42:15.442Z,11.03
2018-04-23T19:44:43.008Z,10.97
2018-04-23T19:47:10.559Z,10.81
2018-04-23T19:49:38.149Z,10.88
2018-04-23T19:52:05.732Z,10.76
2018-04-23T19:54:33.621Z,10.74
2018-04-23T19:57:01.171Z,10.73
2018-04-23T19:59:28.735Z,10.49
2018-04-23T20:01:56.317Z,10.40
2018-04-23T20:04:24.120Z,10.32
2018-04-23T20:06:52.052Z,10.20
2018-04-23T20:09:19.560Z,9.85
2018-04-23T20:11:47.171Z,9.65
2018-04-23T20:14:14.927Z,9.51
2018-04-23T20:16:42.467Z,9.42
2018-04-23T20:19:10.202Z,9.31
2018-04-23T20:21:37.744Z,9.28
2018-04-23T20:24:05.305Z,9.44
2018-04-23T20:26:32.866Z,9.53
2018-04-23T20:29:00.403Z,9.52
2018-04-23T20:31:28.139Z,9.55
2018-04-23T20:33:55.689Z,9.58
2018-04-23T20:36:23.233Z,9.44
2018-04-23T20:38:51.073Z,9.32
2018-04-23T20:41:18.654Z,9.27
2018-04-23T20:43:46.197Z,9.24
2018-04-23T20:46:13.915Z,9.22
2018-04-23T20:48:41.535Z,9.08
2018-04-23T20:51:09.088Z,9.18
2018-04-23T20:53:36.844Z,9.01
2018-04-23T20:56:04.595Z,9.15
2018-04-23T20:58:32.218Z,9.23
2018-04-23T21:00:59.809Z,9.12
2018-04-23T21:03:27.361Z,9.09
2018-04-23T21:05:55.301Z,9.00
2018-04-23T21:08:22.848Z,9.10
2018-04-23T21:10:50.649Z,9.40
2018-04-23T21:13:18.213Z,9.26
2018-04-23T21:15:45.835Z,9.08
2018-04-23T21:18:13.384Z,9.25
2018-04-23T21:20:40.932Z,9.36
2018-04-23T21:23:08.519Z,9.37
2018-04-23T21:25:36.071Z,9.36
2018-04-23T21:28:03.665Z,9.29
2018-04-23T21:30:31.235Z,9.35
2018-04-23T21:32:59.423Z,9.35
2018-04-23T21:35:26.984Z,9.23
2018-04-23T21:37:54.540Z,9.20
2018-04-23T21:40:22.557Z,9.18
2018-04-23T21:42:50.098Z,9.34
2018-04-23T21:45:17.639Z,9.31
2018-04-23T21:47:45.248Z,9.35
2018-04-23T21:50:12.796Z,9.40
2018-04-23T21:52:40.349Z,9.39
2018-04-23T21:55:08.143Z,9.26
2018-04-23T21:57:35.692Z,9.41
2018-04-23T22:00:03.270Z,9.47
2018-04-23T22:02:30.853Z,9.50
2018-04-23T22:04:58.580Z,9.38
2018-04-23T22:07:26.115Z,9.44
2018-04-23T22:09:53.662Z,9.49
2018-04-23T22:12:21.281Z,9.39
2018-04-23T22:14:48.831Z,9.44
2018-04-23T22:17:16.666Z,9.39
2018-04-23T22:19:44.445Z,9.34
2018-04-23T22:22:12.001Z,9.37
2018-04-23T22:24:39.899Z,9.22
2018-04-23T22:27:07.472Z,9.20
2018-04-23T22:29:35.022Z,9.08
2018-04-23T22:32:02.878Z,9.03
2018-04-23T22:34:30.464Z,9.04
2018-04-23T22:36:58.030Z,8.80
2018-04-23T22:39:25.601Z,8.91
2018-04-23T22:41:53.320Z,9.02
2018-04-23T22:44:20.917Z,9.11
2018-04-23T22:46:48.673Z,9.00
2018-04-23T22:49:16.215Z,9.06
2018-04-23T22:51:43.822Z,9.09
2018-04-23T22:54:11.363Z,9.19
2018-04-23T22:56:39.113Z,9.16
2018-04-23T22:59:07.257Z,9.09
2018-04-23T23:01:35.033Z,9.10
2018-04-23T23:04:02.811Z,9.11
2018-04-23T23:06:30.397Z,9.16
2018-04-23T23:08:57.934Z,9.23
2018-04-23T23:11:25.670Z,9.20
2018-04-23T23:13:53.410Z,9.19
2018-04-23T23:16:21.187Z,9.19
2018-04-23T23:18:48.768Z,9.33
2018-04-23T23:21:16.439Z,9.22
2018-04-23T23:23:43.983Z,9.24
2018-04-23T23:26:11.619Z,9.30
2018-04-23T23:28:39.173Z,9.24
2018-04-23T23:31:06.934Z,9.28
2018-04-23T23:33:34.635Z,9.27
2018-04-23T23:36:02.177Z,9.40
2018-04-23T23:38:29.728Z,9.39
2018-04-23T23:40:57.670Z,9.44
2018-04-23T23:43:25.201Z,9.36
2018-04-23T23:45:52.749Z,9.43
2018-04-23T23:48:20.337Z,9.53
2018-04-23T23:50:48.051Z,9.47
2018-04-23T23:53:15.676Z,9.56
2018-04-23T23:55:43.485Z,9.58
2018-04-23T23:58:11.037Z,9.60
